createdAt,value
2022-11-19T00:01:10.966Z,10.10
2022-11-19T00:06:16.739Z,11.50
2022-11-19T00:11:43.065Z,11.35
2022-11-19T00:16:45.570Z,8.90
2022-11-19T00:21:48.703Z,11.48
2022-11-19T00:26:50.544Z,11.13
2022-11-19T00:31:52.365Z,12.20
2022-11-19T00:36:54.209Z,12.02
2022-11-19T00:41:55.824Z,12.32
2022-11-19T00:46:57.571Z,11.35
2022-11-19T00:51:59.163Z,12.25
2022-11-19T00:57:00.896Z,11.95
2022-11-19T01:02:02.499Z,12.68
2022-11-19T01:07:04.190Z,12.35
2022-11-19T01:12:05.871Z,12.73
2022-11-19T01:17:07.495Z,13.32
2022-11-19T01:22:09.108Z,12.82
2022-11-19T01:27:10.787Z,12.68
2022-11-19T01:32:13.278Z,13.80
2022-11-19T01:37:14.860Z,14.30
2022-11-19T01:42:42.851Z,13.00
2022-11-19T01:47:44.582Z,12.65
2022-11-19T01:52:46.268Z,13.48
2022-11-19T01:57:56.286Z,12.95
2022-11-19T02:02:58.055Z,14.90
2022-11-19T02:07:59.755Z,18.27
2022-11-19T02:13:01.400Z,13.02
2022-11-19T02:18:24.486Z,12.80
2022-11-19T02:23:46.013Z,12.52
2022-11-19T02:28:59.138Z,12.77
2022-11-19T02:34:15.592Z,13.20
2022-11-19T02:39:35.387Z,12.40
2022-11-19T02:45:12.742Z,13.90
2022-11-19T02:50:35.112Z,12.98
2022-11-19T02:55:37.962Z,13.20
2022-11-19T03:01:07.114Z,15.10
2022-11-19T03:06:25.232Z,14.00
2022-11-19T03:11:29.428Z,17.27
2022-11-19T03:16:41.779Z,18.95
2022-11-19T03:21:58.237Z,11.68
2022-11-19T03:27:19.029Z,12.77
2022-11-19T03:32:34.855Z,13.48
2022-11-19T03:37:40.902Z,18.35
2022-11-19T03:42:45.968Z,13.82
2022-11-19T03:47:51.342Z,14.07
2022-11-19T03:52:53.204Z,13.02
2022-11-19T03:57:54.918Z,14.52
2022-11-19T04:02:56.860Z,14.10
2022-11-19T04:07:58.490Z,13.48
2022-11-19T04:13:00.203Z,13.20
2022-11-19T04:18:01.922Z,13.98
2022-11-19T04:23:03.648Z,14.13
2022-11-19T04:28:05.288Z,15.32
2022-11-19T04:33:06.910Z,13.00
2022-11-19T04:38:08.546Z,18.58
2022-11-19T04:43:10.195Z,15.23
2022-11-19T04:48:11.855Z,14.60
2022-11-19T04:53:13.483Z,13.38
2022-11-19T04:58:15.560Z,14.25
2022-11-19T05:03:17.218Z,13.98
2022-11-19T05:08:18.881Z,13.18
2022-11-19T05:13:20.598Z,13.85
2022-11-19T05:18:23.925Z,13.57
2022-11-19T05:23:25.772Z,13.25
2022-11-19T05:28:38.097Z,14.13
2022-11-19T05:33:40.432Z,14.73
2022-11-19T05:38:42.111Z,15.18
2022-11-19T05:43:43.827Z,13.50
2022-11-19T05:48:45.468Z,13.63
2022-11-19T05:53:47.144Z,15.93
2022-11-19T05:58:48.786Z,14.20
2022-11-19T06:03:50.400Z,14.35
2022-11-19T06:08:51.997Z,14.75
2022-11-19T06:13:53.624Z,14.30
2022-11-19T06:18:55.412Z,15.98
2022-11-19T06:23:57.122Z,15.70
2022-11-19T06:28:58.848Z,13.52
2022-11-19T06:34:00.733Z,17.52
2022-11-19T06:39:04.372Z,14.10
2022-11-19T06:44:06.347Z,14.60
2022-11-19T06:49:09.123Z,15.07
2022-11-19T06:54:10.904Z,15.20
2022-11-19T06:59:12.568Z,16.55
2022-11-19T07:04:14.289Z,17.23
2022-11-19T07:09:15.947Z,15.73
2022-11-19T07:14:17.693Z,23.88
2022-11-19T07:19:19.759Z,15.90
2022-11-19T07:24:21.810Z,15.23
2022-11-19T07:29:23.676Z,18.52
2022-11-19T07:34:25.553Z,17.90
2022-11-19T07:39:27.605Z,18.50
2022-11-19T07:44:29.232Z,18.30
2022-11-19T07:49:30.979Z,18.88
2022-11-19T07:54:32.754Z,19.67
2022-11-19T07:59:36.227Z,23.88
2022-11-19T08:04:38.189Z,20.67
2022-11-19T08:09:40.173Z,27.90
2022-11-19T08:14:42.032Z,22.55
2022-11-19T08:19:44.157Z,25.20
2022-11-19T08:24:45.946Z,22.25
2022-11-19T08:29:47.702Z,26.70
2022-11-19T08:34:49.535Z,21.58
2022-11-19T08:39:51.219Z,32.67
2022-11-19T08:44:55.203Z,22.25
2022-11-19T08:49:57.868Z,28.40
2022-11-19T08:55:00.168Z,33.03
2022-11-19T09:00:06.195Z,23.90
2022-11-19T09:05:13.368Z,24.58
2022-11-19T09:10:17.908Z,24.20
2022-11-19T09:15:20.483Z,24.30
2022-11-19T09:20:22.807Z,27.60
2022-11-19T09:25:25.000Z,26.00
2022-11-19T09:30:27.153Z,28.25
2022-11-19T09:35:29.142Z,25.83
2022-11-19T09:40:31.005Z,29.75
2022-11-19T09:45:32.913Z,24.10
2022-11-19T09:50:54.434Z,28.77
2022-11-19T09:55:59.173Z,25.90
2022-11-19T10:01:01.580Z,34.25
2022-11-19T10:06:15.300Z,23.40
2022-11-19T10:11:29.836Z,27.00
2022-11-19T10:16:43.471Z,25.75
2022-11-19T10:22:02.070Z,24.15
2022-11-19T10:27:12.347Z,23.58
2022-11-19T10:32:20.102Z,23.02
2022-11-19T10:37:23.655Z,20.92
2022-11-19T10:42:54.353Z,24.50
2022-11-19T10:48:24.892Z,18.40
2022-11-19T10:53:36.233Z,15.13
2022-11-19T10:58:47.095Z,15.27
2022-11-19T11:03:54.706Z,15.88
2022-11-19T11:08:56.626Z,12.82
2022-11-19T11:14:35.099Z,12.85
2022-11-19T11:19:36.853Z,10.13
2022-11-19T11:24:39.103Z,9.55
2022-11-19T11:29:41.338Z,10.43
2022-11-19T11:34:43.962Z,10.50
2022-11-19T11:39:50.941Z,9.18
2022-11-19T11:44:56.147Z,3.78
2022-11-19T11:50:15.160Z,5.60
2022-11-19T11:55:22.861Z,5.75
2022-11-19T12:00:37.035Z,5.85
2022-11-19T12:05:50.771Z,7.25
2022-11-19T12:10:57.578Z,7.13
2022-11-19T12:16:32.280Z,9.18
2022-11-19T12:21:52.073Z,7.82
2022-11-19T12:27:00.520Z,7.63
2022-11-19T12:32:08.051Z,8.52
2022-11-19T12:37:28.470Z,7.22
2022-11-19T12:42:44.665Z,6.50
2022-11-19T12:48:19.835Z,6.50
2022-11-19T12:54:04.507Z,8.93
2022-11-19T12:59:31.306Z,8.25
2022-11-19T13:04:43.563Z,7.10
2022-11-19T13:09:51.559Z,6.95
2022-11-19T13:15:19.360Z,6.65
2022-11-19T13:20:39.551Z,7.30
2022-11-19T13:25:49.601Z,6.25
2022-11-19T13:30:55.228Z,6.80
2022-11-19T13:36:15.448Z,6.55
2022-11-19T13:41:23.368Z,9.35
2022-11-19T13:46:32.115Z,7.70
2022-11-19T13:51:44.713Z,8.68
2022-11-19T13:56:48.964Z,9.95
2022-11-19T14:02:08.714Z,7.38
2022-11-19T14:07:24.594Z,8.48
2022-11-19T14:12:45.012Z,8.52
2022-11-19T14:18:17.783Z,9.68
2022-11-19T14:23:56.493Z,7.72
2022-11-19T14:28:58.112Z,8.20
2022-11-19T14:34:04.035Z,8.57
2022-11-19T14:39:14.439Z,8.88
2022-11-19T14:44:25.250Z,9.07
2022-11-19T14:49:33.538Z,10.35
2022-11-19T14:54:44.764Z,9.73
2022-11-19T14:59:50.891Z,10.95
2022-11-19T15:05:03.737Z,11.20
2022-11-19T15:10:14.540Z,11.30
2022-11-19T15:15:25.163Z,11.80
2022-11-19T15:20:57.540Z,12.93
2022-11-19T15:26:20.798Z,12.88
2022-11-19T15:31:59.845Z,12.80
2022-11-19T15:37:08.667Z,15.68
2022-11-19T15:42:25.435Z,19.70
2022-11-19T15:47:45.679Z,18.80
2022-11-19T15:53:01.433Z,15.70
2022-11-19T15:58:14.917Z,16.60
2022-11-19T16:03:18.842Z,16.27
2022-11-19T16:08:20.520Z,16.80
2022-11-19T16:13:45.492Z,17.70
2022-11-19T16:18:52.123Z,17.77
2022-11-19T16:24:13.291Z,17.25
2022-11-19T16:29:21.967Z,17.42
2022-11-19T16:34:26.398Z,18.70
2022-11-19T16:39:33.449Z,20.00
2022-11-19T16:44:35.707Z,24.98
2022-11-19T16:49:42.640Z,21.15
2022-11-19T16:54:49.971Z,18.25
2022-11-19T17:05:05.841Z,19.90
2022-11-19T17:10:09.768Z,20.38
2022-11-19T17:15:40.963Z,19.13
2022-11-19T17:20:45.559Z,18.25
2022-11-19T17:25:54.316Z,17.40
2022-11-19T17:30:57.151Z,16.42
2022-11-19T17:35:59.122Z,17.40
2022-11-19T17:41:03.012Z,16.75
2022-11-19T17:46:05.005Z,16.83
2022-11-19T17:51:09.709Z,17.98
2022-11-19T17:56:19.700Z,19.48
2022-11-19T18:01:21.879Z,20.90
2022-11-19T18:06:24.028Z,20.40
2022-11-19T18:11:26.478Z,21.77
2022-11-19T18:16:34.222Z,24.05
2022-11-19T18:21:35.986Z,21.33
2022-11-19T18:26:37.677Z,19.38
2022-11-19T18:31:44.244Z,18.67
2022-11-19T18:36:46.110Z,20.67
2022-11-19T18:41:47.935Z,23.08
2022-11-19T18:46:49.577Z,19.23
2022-11-19T18:51:51.267Z,17.70
2022-11-19T18:56:53.144Z,17.73
2022-11-19T19:01:55.913Z,17.30
2022-11-19T19:06:59.296Z,18.08
2022-11-19T19:12:19.648Z,19.63
2022-11-19T19:17:21.744Z,18.83
2022-11-19T19:22:23.429Z,18.23
2022-11-19T19:27:25.693Z,18.80
2022-11-19T19:32:28.272Z,20.50
2022-11-19T19:37:29.920Z,18.33
2022-11-19T19:42:31.660Z,18.50
2022-11-19T19:47:33.320Z,18.33
2022-11-19T19:52:34.977Z,20.92
2022-11-19T19:57:36.589Z,19.52
2022-11-19T20:02:38.411Z,19.42
2022-11-19T20:07:40.114Z,18.02
2022-11-19T20:13:00.414Z,19.77
2022-11-19T20:18:02.232Z,20.70
2022-11-19T20:23:03.850Z,22.08
2022-11-19T20:28:05.545Z,20.05
2022-11-19T20:33:07.627Z,19.48
2022-11-19T20:38:09.291Z,21.35
2022-11-19T20:43:29.285Z,17.92
2022-11-19T20:48:30.953Z,19.23
2022-11-19T20:53:32.908Z,17.42
2022-11-19T20:58:34.812Z,18.10
2022-11-19T21:03:37.577Z,17.83
2022-11-19T21:08:39.356Z,29.85
2022-11-19T21:13:41.771Z,20.55
2022-11-19T21:18:44.043Z,20.70
2022-11-19T21:23:45.941Z,20.48
2022-11-19T21:28:51.906Z,27.83
2022-11-19T21:33:53.615Z,24.38
2022-11-19T21:38:55.321Z,21.58
2022-11-19T21:43:57.112Z,24.50
2022-11-19T21:48:59.157Z,17.92
2022-11-19T21:54:00.880Z,21.30
2022-11-19T21:59:02.574Z,19.15
2022-11-19T22:04:04.630Z,22.60
2022-11-19T22:09:06.312Z,24.65
2022-11-19T22:14:09.353Z,22.45
2022-11-19T22:19:12.056Z,24.73
2022-11-19T22:24:13.738Z,24.10
2022-11-19T22:29:15.411Z,25.38
2022-11-19T22:34:17.115Z,24.63
2022-11-19T22:39:19.583Z,24.48
2022-11-19T22:44:21.380Z,25.02
2022-11-19T22:49:23.272Z,22.80
2022-11-19T22:54:25.092Z,25.08
2022-11-19T22:59:27.085Z,23.73
2022-11-19T23:04:29.345Z,26.88
2022-11-19T23:09:31.096Z,25.45
2022-11-19T23:14:32.752Z,21.50
2022-11-19T23:19:37.343Z,28.15
2022-11-19T23:24:39.024Z,26.33
2022-11-19T23:29:40.909Z,27.73
2022-11-19T23:34:42.590Z,21.35
2022-11-19T23:39:44.317Z,23.90
2022-11-19T23:44:46.206Z,21.27
2022-11-19T23:49:47.844Z,25.23
2022-11-19T23:54:49.442Z,29.75
2022-11-19T23:59:51.073Z,23.17
